Time;durP1;ratioP1;P1;durP2;ratioP2;P2;SDS_P1;SDS_P2;PMS_P1;PMS_P2;Temp;Humidity;BMP_temperature;BMP_pressure;BME280_temperature;BME280_humidity;BME280_pressure;Samples;Min_cycle;Max_cycle;Signal;HPM_P1;HPM_P2
2022/05/13 00:01:35;;;;;;;7.60;6.90;;;;;;;17.27;60.43;95153.44;5074205;28;20436;-77
2022/05/13 00:04:02;;;;;;;7.20;6.60;;;;;;;17.24;60.09;95158.25;5074159;28;20429;-78
2022/05/13 00:06:29;;;;;;;7.40;6.60;;;;;;;17.22;60.39;95150.47;5073881;28;20512;-78
2022/05/13 00:08:56;;;;;;;7.60;6.80;;;;;;;17.20;60.88;95157.75;5073180;28;20440;-77
2022/05/13 00:11:23;;;;;;;6.40;5.80;;;;;;;17.19;60.82;95156.09;5073266;28;20452;-78
2022/05/13 00:13:50;;;;;;;7.13;6.53;;;;;;;17.20;61.12;95154.28;5022337;28;20441;-78
2022/05/13 00:16:18;;;;;;;7.43;6.70;;;;;;;17.30;60.78;95168.19;5073059;28;20444;-78
2022/05/13 00:18:45;;;;;;;7.00;6.40;;;;;;;17.33;60.72;95160.75;5073340;28;20476;-78
2022/05/13 00:21:12;;;;;;;6.60;6.00;;;;;;;17.43;60.72;95168.56;5073111;28;20437;-77
2022/05/13 00:23:39;;;;;;;7.80;6.70;;;;;;;17.48;59.97;95165.41;5073235;28;20431;-79
2022/05/13 00:26:06;;;;;;;6.53;6.03;;;;;;;17.45;60.37;95169.22;5073669;28;20433;-78
2022/05/13 00:28:33;;;;;;;8.73;5.80;;;;;;;17.46;59.70;95167.41;5073355;28;20908;-78
2022/05/13 00:34:24;;;;;;;7.47;5.93;;;;;;;17.26;61.30;95177.47;5073360;28;20436;-78
2022/05/13 00:36:52;;;;;;;5.77;5.27;;;;;;;17.10;61.27;95172.16;5038435;28;20447;-78
2022/05/13 00:39:19;;;;;;;6.70;6.03;;;;;;;16.94;61.66;95173.78;5073568;28;20434;-78
2022/05/13 00:41:46;;;;;;;7.23;6.53;;;;;;;16.81;62.23;95172.59;5073524;28;20429;-78
2022/05/13 00:44:13;;;;;;;8.40;6.93;;;;;;;16.89;62.08;95176.09;5022097;28;20436;-77
2022/05/13 00:46:40;;;;;;;7.87;6.87;;;;;;;16.92;61.86;95172.28;5073844;28;20469;-78
2022/05/13 00:49:11;;;;;;;10.80;6.40;;;;;;;16.95;61.64;95179.91;5073038;28;20444;-78
2022/05/13 00:51:42;;;;;;;6.60;6.00;;;;;;;16.95;61.53;95179.91;5073032;28;20908;-77
2022/05/13 01:07:38;;;;;;;7.13;6.53;;;;;;;16.69;63.73;95170.22;5072985;28;20447;-78
2022/05/13 01:10:08;;;;;;;7.87;7.03;;;;;;;16.68;62.77;95173.88;5022095;28;20444;-76
2022/05/13 01:12:39;;;;;;;6.83;6.13;;;;;;;16.66;62.77;95170.53;5073327;28;20464;-77
2022/05/13 01:15:09;;;;;;;8.50;7.70;;;;;;;16.63;63.46;95178.78;5072804;28;20452;-78
2022/05/13 01:20:25;;;;;;;7.37;6.63;;;;;;;16.59;63.31;95174.81;5072904;28;20404;-78
2022/05/13 01:22:55;;;;;;;11.93;6.20;;;;;;;16.54;64.52;95177.09;5076470;28;20449;-78
2022/05/13 01:25:25;;;;;;;7.70;7.00;;;;;;;16.42;64.15;95178.34;5077246;28;20433;-77
2022/05/13 01:48:08;;;;;;;8.97;7.10;;;;;;;16.19;64.97;95158.69;5076467;28;20533;-78
2022/05/13 01:50:35;;;;;;;7.07;6.37;;;;;;;16.22;64.30;95153.94;5076102;28;20428;-78
2022/05/13 01:53:02;;;;;;;9.80;7.00;;;;;;;16.03;65.09;95147.06;5076550;28;20429;-78
2022/05/13 01:55:29;;;;;;;9.00;7.93;;;;;;;16.09;65.48;95154.38;5076509;28;20433;-78
2022/05/13 01:57:56;;;;;;;7.17;6.53;;;;;;;16.03;65.78;95148.88;5075950;28;20825;-78
2022/05/13 02:00:24;;;;;;;9.13;6.93;;;;;;;16.01;66.03;95142.91;5076103;28;20429;-78
2022/05/13 02:05:36;;;;;;;9.47;7.57;;;;;;;15.83;66.49;95134.19;5076159;28;20910;-78
2022/05/13 02:08:04;;;;;;;7.67;6.97;;;;;;;15.67;67.17;95140.22;5076223;28;20501;-78
2022/05/13 02:10:31;;;;;;;11.57;7.20;;;;;;;15.61;67.78;95146.09;5075701;28;20445;-78
2022/05/13 02:12:58;;;;;;;9.07;8.17;;;;;;;15.53;68.22;95143.38;5076195;28;20453;-78
2022/05/13 02:15:25;;;;;;;8.63;7.73;;;;;;;15.55;68.26;95151.97;5075999;28;20449;-78
2022/05/13 02:17:51;;;;;;;10.60;7.40;;;;;;;15.54;69.30;95156.44;5024382;28;20927;-77
2022/05/13 02:20:18;;;;;;;10.23;7.30;;;;;;;15.57;68.42;95155.31;5075955;28;20480;-78
2022/05/13 02:22:47;;;;;;;8.23;7.43;;;;;;;15.68;68.37;95157.75;5040832;28;20441;-78
2022/05/13 02:25:14;;;;;;;7.20;6.60;;;;;;;15.74;67.40;95155.31;5075496;28;20437;-78
2022/05/13 02:27:40;;;;;;;7.73;7.10;;;;;;;15.75;67.63;95162.25;5075609;28;20471;-78
2022/05/13 02:30:09;;;;;;;8.20;7.50;;;;;;;15.52;68.34;95170.81;5075475;28;20443;-78
2022/05/13 02:32:36;;;;;;;8.10;7.40;;;;;;;15.66;68.16;95172.94;5074320;28;20936;-78
2022/05/13 02:35:04;;;;;;;9.33;8.43;;;;;;;15.70;68.29;95167.19;5075194;28;20448;-77
2022/05/13 02:37:31;;;;;;;10.70;9.70;;;;;;;15.65;68.33;95172.13;5075561;28;20571;-78
2022/05/13 02:39:59;;;;;;;9.77;8.70;;;;;;;15.79;68.13;95181.31;5023725;28;20790;-78
2022/05/13 02:42:26;;;;;;;9.00;8.10;;;;;;;15.79;68.02;95184.78;5075561;28;20429;-77
2022/05/13 02:44:53;;;;;;;11.77;8.23;;;;;;;15.70;67.57;95183.06;5075409;28;20444;-78
2022/05/13 02:47:20;;;;;;;9.93;8.10;;;;;;;15.66;67.78;95183.53;5075242;28;20419;-78
2022/05/13 02:49:47;;;;;;;9.10;8.20;;;;;;;15.67;67.90;95182.53;5074939;28;20429;-78
2022/05/13 02:52:14;;;;;;;9.83;8.30;;;;;;;15.64;67.89;95188.97;5074774;28;20799;-78
2022/05/13 02:54:40;;;;;;;10.10;8.00;;;;;;;15.57;68.29;95181.75;5023797;28;20441;-78
2022/05/13 02:57:09;;;;;;;12.20;7.90;;;;;;;15.48;68.78;95192.28;5074939;28;20761;-78
2022/05/13 02:59:36;;;;;;;9.27;8.20;;;;;;;15.40;68.78;95189.56;5074813;28;20900;-78
2022/05/13 03:02:03;;;;;;;8.50;7.17;;;;;;;15.28;69.67;95182.84;5075111;28;20436;-78
2022/05/13 03:04:29;;;;;;;9.23;8.33;;;;;;;15.27;69.52;95186.47;5023791;28;20449;-78
2022/05/13 03:06:56;;;;;;;8.60;7.80;;;;;;;15.30;69.68;95191.44;5075420;28;20850;-78
2022/05/13 03:09:23;;;;;;;8.50;7.63;;;;;;;15.35;69.48;95196.31;5074837;28;20469;-77
2022/05/13 03:11:52;;;;;;;11.00;7.87;;;;;;;15.33;69.73;95195.63;5075010;28;20456;-78
2022/05/13 03:14:20;;;;;;;9.93;8.17;;;;;;;15.35;69.58;95189.19;5024266;28;20444;-78
2022/05/13 03:16:47;;;;;;;7.70;7.00;;;;;;;15.35;69.34;95189.19;5074717;28;20445;-78
2022/05/13 03:19:14;;;;;;;12.80;7.43;;;;;;;15.24;69.29;95184.13;5023000;28;20481;-78
2022/05/13 03:21:41;;;;;;;8.97;8.17;;;;;;;15.33;69.19;95185.06;5074337;28;20441;-78
2022/05/13 03:24:08;;;;;;;9.03;8.20;;;;;;;15.36;69.39;95182.09;5074988;28;20437;-78
2022/05/13 03:26:35;;;;;;;8.90;8.00;;;;;;;15.32;69.69;95181.53;5074585;28;20433;-78
2022/05/13 03:29:02;;;;;;;8.70;7.83;;;;;;;15.23;68.91;95179.81;5074071;28;20865;-78
2022/05/13 03:31:34;;;;;;;8.37;7.57;;;;;;;15.29;69.30;95195.06;5074831;28;20433;-80
2022/05/13 03:34:01;;;;;;;8.98;8.18;;;;;;;15.32;69.29;95186.84;5074087;28;20432;-81
2022/05/13 03:36:28;;;;;;;8.47;7.60;;;;;;;15.31;68.70;95187.81;5074169;28;20549;-79
2022/05/13 03:38:55;;;;;;;9.07;8.27;;;;;;;15.24;68.92;95184.13;5074265;28;20460;-78
2022/05/13 03:41:21;;;;;;;9.70;8.80;;;;;;;15.31;68.86;95194.91;5074436;28;20429;-79
2022/05/13 03:43:48;;;;;;;11.93;7.07;;;;;;;15.38;68.84;95198.66;5074067;28;20444;-79
2022/05/13 04:03:05;;;;;;;21.07;10.97;;;;;;;18.11;60.31;95215.19;5073650;28;20396;-80
2022/05/13 04:11:06;;;;;;;20.13;8.90;;;;;;;18.90;57.58;95224.97;5011978;28;20442;-80
2022/05/13 04:17:06;;;;;;;14.73;8.47;;;;;;;20.02;54.40;95232.44;5011976;28;20442;-80
2022/05/13 04:19:35;;;;;;;21.57;9.50;;;;;;;20.46;52.78;95228.22;5011291;28;20489;-78
2022/05/13 04:22:01;;;;;;;9.27;8.47;;;;;;;21.62;58.93;95229.09;5011272;28;20447;-77
2022/05/13 04:24:28;;;;;;;9.03;8.17;;;;;;;22.63;50.10;95224.44;4978456;28;20436;-78
2022/05/13 04:26:55;;;;;;;8.77;7.93;;;;;;;23.44;46.62;95225.50;5011569;28;20439;-77
2022/05/13 04:29:22;;;;;;;8.10;7.30;;;;;;;23.84;46.47;95224.78;5011307;28;20482;-77
2022/05/13 04:31:49;;;;;;;15.90;8.33;;;;;;;24.24;45.09;95225.66;5011100;28;20448;-77
2022/05/13 04:34:16;;;;;;;13.60;8.27;;;;;;;24.73;42.71;95224.41;5011068;28;20442;-77
2022/05/13 04:36:44;;;;;;;8.90;7.10;;;;;;;25.14;41.88;95230.31;5010899;28;20817;-77
2022/05/13 04:39:13;;;;;;;19.27;8.10;;;;;;;25.39;42.38;95230.44;5011138;28;20454;-77
2022/05/13 04:44:40;;;;;;;7.30;6.50;;;;;;;25.43;39.45;95230.81;4967454;28;20425;-78
2022/05/13 04:48:15;;;;;;;7.90;7.10;;;;;;;25.29;39.66;95238.13;4991851;28;20448;-76
2022/05/13 04:49:54;;;;;;;9.53;7.40;;;;;;;25.04;42.78;95237.19;4991278;28;20486;-77
2022/05/13 04:52:22;;;;;;;9.73;6.80;;;;;;;25.21;41.41;95235.69;4991583;28;20454;-76
2022/05/13 04:54:49;;;;;;;16.00;9.87;;;;;;;24.93;41.94;95238.63;4991309;28;20449;-75
2022/05/13 04:57:16;;;;;;;10.03;9.00;;;;;;;24.92;41.87;95239.66;4994692;28;20432;-75
2022/05/13 04:59:43;;;;;;;10.27;8.77;;;;;;;25.13;42.04;95241.28;4995398;28;20455;-76
2022/05/13 05:02:10;;;;;;;8.63;7.80;;;;;;;25.46;40.61;95241.16;4995109;28;20448;-77
2022/05/13 05:04:37;;;;;;;16.63;8.37;;;;;;;25.12;40.84;95240.44;4995537;28;20449;-77
2022/05/13 05:07:04;;;;;;;12.10;8.07;;;;;;;25.33;41.93;95236.66;4995393;28;20445;-78
2022/05/13 05:09:35;;;;;;;11.23;6.90;;;;;;;25.04;42.49;95242.53;4947276;28;20531;-76
2022/05/13 05:12:02;;;;;;;8.40;7.13;;;;;;;24.52;43.33;95241.56;4995379;28;20983;-77
2022/05/13 05:14:28;;;;;;;13.23;7.60;;;;;;;24.83;44.17;95243.59;4998069;28;20961;-76
2022/05/13 05:16:55;;;;;;;15.10;7.70;;;;;;;25.16;41.96;95246.25;5041803;28;20448;-77
2022/05/13 05:19:22;;;;;;;7.63;6.83;;;;;;;25.61;42.07;95239.00;5076896;28;20476;-78
2022/05/13 05:21:49;;;;;;;8.83;6.93;;;;;;;25.77;40.37;95229.66;5077166;28;20437;-79
2022/05/13 05:24:16;;;;;;;14.90;9.57;;;;;;;25.66;40.15;95247.25;5076737;28;20444;-79
2022/05/13 05:26:44;;;;;;;15.67;8.30;;;;;;;25.78;40.69;95244.75;5025195;28;20447;-79
2022/05/13 05:29:11;;;;;;;12.93;10.27;;;;;;;25.75;42.25;95248.72;5076502;28;20492;-79
2022/05/13 05:31:38;;;;;;;39.37;21.93;;;;;;;25.82;40.16;95251.34;5076937;28;20460;-79
2022/05/13 05:34:05;;;;;;;50.73;31.67;;;;;;;25.45;39.95;95251.09;5076762;28;20433;-78
2022/05/13 05:36:32;;;;;;;173.13;114.70;;;;;;;25.52;40.69;95245.69;5076307;28;20440;-77
2022/05/13 05:38:59;;;;;;;198.87;141.87;;;;;;;25.62;41.09;95252.25;5076378;28;20520;-78
2022/05/13 05:41:26;;;;;;;26.47;17.60;;;;;;;25.74;39.68;95241.69;5073134;28;20471;-76
2022/05/13 05:43:54;;;;;;;12.10;10.40;;;;;;;25.50;40.18;95253.13;5070132;28;20527;-76
2022/05/13 05:46:21;;;;;;;46.33;31.37;;;;;;;24.96;42.36;95246.25;5075922;28;20441;-77
2022/05/13 05:48:48;;;;;;;66.20;42.23;;;;;;;24.91;42.97;95248.75;5075973;28;20495;-78
2022/05/13 05:51:14;;;;;;;123.03;88.43;;;;;;;25.07;42.09;95242.94;5075439;28;20937;-77
2022/05/13 05:59:11;;;;;;;19.23;11.90;;;;;;;25.61;39.73;95242.53;5076282;28;20440;-78
2022/05/13 06:01:38;;;;;;;13.63;11.35;;;;;;;25.56;41.13;95245.03;5076080;28;20445;-77
2022/05/13 06:04:06;;;;;;;8.97;7.00;;;;;;;25.76;41.72;95230.72;5075982;28;20206;-76
2022/05/13 06:06:33;;;;;;;9.23;8.23;;;;;;;26.01;41.56;95233.44;5069773;28;20533;-79
2022/05/13 06:09:01;;;;;;;13.63;8.30;;;;;;;26.21;40.00;95232.25;5037401;28;20473;-78
2022/05/13 06:11:29;;;;;;;7.80;6.63;;;;;;;26.49;39.25;95237.25;5056008;28;20449;-77
2022/05/13 06:13:58;;;;;;;11.47;6.70;;;;;;;26.08;38.84;95235.06;5055870;28;20426;-79
2022/05/13 06:16:28;;;;;;;9.30;6.50;;;;;;;26.20;38.71;95232.47;5055717;28;20450;-78
2022/05/13 06:18:58;;;;;;;9.17;7.20;;;;;;;26.47;39.17;95228.56;5056212;28;20480;-79
2022/05/13 06:21:25;;;;;;;7.37;6.67;;;;;;;26.15;39.80;95235.81;5055726;28;20438;-76
2022/05/13 06:23:51;;;;;;;9.00;6.53;;;;;;;26.25;38.70;95227.25;5055592;28;20437;-77
2022/05/13 06:26:18;;;;;;;8.57;7.03;;;;;;;26.33;38.95;95224.31;5055846;28;20449;-76
2022/05/13 06:28:45;;;;;;;9.10;6.10;;;;;;;26.41;39.98;95221.38;5055609;28;20477;-76
2022/05/13 06:31:12;;;;;;;8.13;6.87;;;;;;;26.37;38.77;95219.34;5055534;28;20422;-76
2022/05/13 06:33:41;;;;;;;10.60;5.50;;;;;;;26.33;40.48;95218.13;5056079;28;20499;-76
2022/05/13 06:36:08;;;;;;;14.60;6.37;;;;;;;26.08;39.74;95210.84;5055558;28;20449;-76
2022/05/13 06:38:35;;;;;;;8.00;6.70;;;;;;;25.89;39.37;95223.38;5067678;28;20457;-75
2022/05/13 06:41:02;;;;;;;16.17;6.33;;;;;;;26.17;39.56;95214.09;5075880;28;20433;-76
2022/05/13 06:43:29;;;;;;;10.43;6.97;;;;;;;26.41;39.83;95218.69;5024211;28;20437;-76
2022/05/13 06:45:56;;;;;;;10.30;6.10;;;;;;;26.45;39.28;95213.69;5076172;28;20467;-76
2022/05/13 06:48:23;;;;;;;7.30;6.43;;;;;;;26.12;39.49;95209.38;5076575;28;20429;-78
2022/05/13 06:50:52;;;;;;;6.93;6.23;;;;;;;26.25;39.73;95206.56;5074841;28;20449;-77
2022/05/13 06:53:22;;;;;;;8.43;6.03;;;;;;;26.55;39.04;95203.22;5075044;28;20441;-78
2022/05/13 06:55:49;;;;;;;9.50;6.13;;;;;;;26.59;39.30;95204.44;5074911;28;20520;-76
2022/05/13 06:58:17;;;;;;;7.83;6.20;;;;;;;26.57;39.02;95208.38;5073029;28;20791;-78
2022/05/13 07:00:45;;;;;;;7.13;6.40;;;;;;;26.69;38.54;95195.84;5054854;28;20778;-76
2022/05/13 07:03:13;;;;;;;7.60;6.80;;;;;;;26.96;38.06;95194.53;5054934;28;20446;-75
2022/05/13 07:05:40;;;;;;;12.27;6.37;;;;;;;27.25;37.44;95192.16;5054863;28;20450;-79
2022/05/13 07:08:09;;;;;;;9.23;6.83;;;;;;;27.38;36.93;95195.50;5061604;28;20457;-76
2022/05/13 07:10:37;;;;;;;7.70;7.00;;;;;;;27.51;36.13;95191.00;5074511;28;20489;-76
2022/05/13 07:13:04;;;;;;;14.00;7.77;;;;;;;27.25;36.68;95182.22;5023702;28;20431;-78
2022/05/13 07:15:31;;;;;;;7.27;6.67;;;;;;;27.24;36.46;95183.25;5074731;28;20448;-76
2022/05/13 07:17:59;;;;;;;7.07;6.37;;;;;;;27.26;37.65;95185.72;5039346;28;20924;-78
2022/05/13 07:20:27;;;;;;;7.43;6.73;;;;;;;27.17;37.54;95186.00;5074128;28;20536;-75
2022/05/13 07:22:54;;;;;;;7.53;6.13;;;;;;;27.24;38.13;95182.44;5074694;28;20433;-75
2022/05/13 07:25:23;;;;;;;5.83;5.33;;;;;;;27.54;37.07;95187.84;5074904;28;20440;-75
2022/05/13 07:27:50;;;;;;;6.50;6.00;;;;;;;27.47;37.58;95174.47;5074736;28;20448;-76
2022/05/13 07:30:17;;;;;;;10.57;6.23;;;;;;;27.65;37.08;95182.53;5074805;28;20469;-75
2022/05/13 07:32:44;;;;;;;10.80;7.23;;;;;;;27.46;36.08;95186.28;5074223;28;20463;-77
2022/05/13 07:35:11;;;;;;;10.33;7.23;;;;;;;27.62;36.21;95176.78;5074045;28;20441;-76
2022/05/13 07:37:38;;;;;;;8.93;6.33;;;;;;;27.43;37.20;95176.78;5022966;28;20449;-76
2022/05/13 07:42:52;;;;;;;10.53;7.20;;;;;;;27.17;38.56;95180.63;5074226;28;20432;-79
2022/05/13 07:45:19;;;;;;;6.97;6.37;;;;;;;27.36;38.03;95175.22;5074396;28;20437;-79
2022/05/13 07:47:47;;;;;;;9.43;6.10;;;;;;;27.40;38.55;95168.31;5074159;28;20927;-76
2022/05/13 07:50:16;;;;;;;7.23;6.53;;;;;;;27.38;38.01;95165.84;5022820;28;20480;-76
2022/05/13 07:52:43;;;;;;;9.20;6.60;;;;;;;27.28;37.41;95164.75;5074334;28;20811;-78
2022/05/13 07:55:11;;;;;;;14.93;8.40;;;;;;;27.14;38.40;95167.59;5073405;28;20445;-78
2022/05/13 07:57:40;;;;;;;10.17;7.50;;;;;;;26.92;38.62;95160.19;5073569;28;20459;-78
2022/05/13 08:00:27;;;;;;;9.93;7.00;;;;;;;26.83;38.43;95155.09;5006701;28;20802;-78
2022/05/13 08:02:56;;;;;;;14.93;7.00;;;;;;;26.92;38.53;95150.25;5053240;28;20461;-78
2022/05/13 08:05:23;;;;;;;11.30;7.67;;;;;;;26.87;38.25;95150.06;5053366;28;20525;-79
2022/05/13 08:07:59;;;;;;;17.10;6.90;;;;;;;26.72;36.83;95155.84;5048568;28;20461;-77
2022/05/13 08:10:26;;;;;;;9.50;7.67;;;;;;;26.93;36.48;95156.47;5052985;28;20489;-77
2022/05/13 08:12:53;;;;;;;14.63;7.27;;;;;;;26.82;37.85;95145.38;5053401;28;20454;-78
2022/05/13 08:15:22;;;;;;;18.13;7.60;;;;;;;27.13;37.50;95144.41;5053555;28;20453;-78
2022/05/13 08:17:48;;;;;;;16.40;6.83;;;;;;;27.21;38.33;95154.06;5053659;28;20446;-78
2022/05/13 08:20:15;;;;;;;9.00;7.40;;;;;;;27.41;38.48;95149.22;5017560;28;20809;-76
2022/05/13 08:22:42;;;;;;;16.40;7.37;;;;;;;27.53;38.42;95143.91;5053133;28;20453;-78
2022/05/13 08:25:10;;;;;;;14.80;7.70;;;;;;;27.51;36.43;95142.47;5053096;28;20460;-77
2022/05/13 08:27:37;;;;;;;14.80;6.40;;;;;;;27.53;37.25;95141.19;5053027;28;20792;-77
2022/05/13 08:30:04;;;;;;;12.57;7.10;;;;;;;27.37;36.12;95137.25;5052606;28;20492;-77
2022/05/13 08:32:33;;;;;;;12.60;6.37;;;;;;;27.44;35.67;95135.28;5035209;28;20941;-79
2022/05/13 08:35:00;;;;;;;8.77;6.87;;;;;;;27.41;36.39;95135.75;5053142;28;20452;-77
2022/05/13 08:37:27;;;;;;;9.53;6.30;;;;;;;27.44;35.69;95127.19;5052656;28;21047;-79
2022/05/13 08:39:55;;;;;;;12.67;5.67;;;;;;;27.13;37.04;95130.94;5052945;28;20450;-77
2022/05/13 08:42:35;;;;;;;8.03;5.90;;;;;;;27.36;35.64;95124.84;5052787;28;20492;-78
2022/05/13 08:45:02;;;;;;;10.93;6.57;;;;;;;27.56;35.71;95129.13;5052929;28;20970;-78
2022/05/13 08:47:40;;;;;;;7.73;6.83;;;;;;;27.75;36.77;95128.84;5052715;28;20449;-78
2022/05/13 08:50:10;;;;;;;13.27;5.50;;;;;;;27.90;35.19;95130.31;5053321;28;20513;-79
2022/05/13 08:55:35;;;;;;;14.87;5.73;;;;;;;27.59;33.64;95107.09;5052987;28;20422;-79
2022/05/13 08:58:05;;;;;;;8.30;7.50;;;;;;;27.79;35.07;95107.66;5053062;28;20442;-78
2022/05/13 09:00:36;;;;;;;10.33;6.27;;;;;;;27.57;34.85;95107.34;5053093;28;20449;-78
2022/05/13 09:03:14;;;;;;;7.53;6.67;;;;;;;27.33;35.38;95097.53;5053718;28;20438;-78
2022/05/13 09:05:46;;;;;;;15.83;7.10;;;;;;;27.50;36.95;95105.78;5053533;28;20897;-78
2022/05/13 09:08:12;;;;;;;7.40;6.70;;;;;;;27.68;34.71;95106.56;5053525;28;20446;-78
2022/05/13 09:10:54;;;;;;;7.80;6.50;;;;;;;27.82;36.06;95107.19;5017940;28;20481;-78
2022/05/13 09:13:27;;;;;;;6.30;5.70;;;;;;;28.00;35.24;95100.88;5053212;28;20449;-79
2022/05/13 09:15:56;;;;;;;9.10;5.73;;;;;;;28.08;36.87;95100.53;5053221;28;20900;-78
2022/05/13 09:18:32;;;;;;;10.03;6.07;;;;;;;28.20;35.07;95093.25;5053976;28;20473;-79
2022/05/13 09:21:02;;;;;;;13.03;6.67;;;;;;;28.23;35.29;95089.28;5053069;28;20437;-79
2022/05/13 09:23:29;;;;;;;12.20;7.17;;;;;;;28.11;36.16;95083.88;5018544;28;20441;-78
2022/05/13 09:26:09;;;;;;;11.10;6.77;;;;;;;28.27;34.84;95085.91;5052916;28;20536;-79
2022/05/13 09:28:37;;;;;;;12.47;6.50;;;;;;;28.33;35.71;95076.03;5053008;28;20441;-77
2022/05/13 09:31:08;;;;;;;9.33;6.30;;;;;;;28.19;35.35;95075.44;5053093;28;20484;-77
2022/05/13 09:33:39;;;;;;;8.60;6.00;;;;;;;27.98;33.42;95073.31;5052857;28;20434;-77
2022/05/13 09:36:08;;;;;;;6.90;6.17;;;;;;;27.96;35.10;95061.94;5052744;28;20442;-77
2022/05/13 09:38:43;;;;;;;8.47;6.10;;;;;;;27.35;34.24;95052.28;5052716;28;20936;-77
2022/05/13 09:41:12;;;;;;;10.77;7.00;;;;;;;27.23;35.14;95054.13;5053303;28;20441;-78
2022/05/13 09:43:43;;;;;;;7.93;6.50;;;;;;;27.28;35.93;95052.41;5055838;28;20422;-78
2022/05/13 09:46:12;;;;;;;12.83;6.57;;;;;;;27.47;36.26;95050.47;5056085;28;20476;-77
2022/05/13 09:49:01;;;;;;;15.90;6.73;;;;;;;27.57;35.62;95050.72;5055946;28;20426;-77
2022/05/13 09:51:35;;;;;;;9.80;7.50;;;;;;;27.32;34.41;95041.97;5056691;28;20477;-78
2022/05/13 09:54:08;;;;;;;13.50;6.63;;;;;;;27.14;34.96;95035.59;5056182;28;20503;-78
2022/05/13 09:56:42;;;;;;;19.63;6.50;;;;;;;27.18;35.77;95025.19;5056642;28;20433;-76
2022/05/13 09:59:17;;;;;;;6.33;5.83;;;;;;;26.95;35.49;95027.75;5056344;28;20434;-78
2022/05/13 10:01:44;;;;;;;11.93;5.93;;;;;;;26.97;34.81;95021.09;5055788;28;20445;-77
2022/05/13 10:04:19;;;;;;;10.33;5.37;;;;;;;27.12;35.15;95023.41;5055928;28;20529;-78
2022/05/13 10:06:47;;;;;;;6.20;5.70;;;;;;;27.33;35.46;95022.06;5056523;28;20449;-77
2022/05/13 10:15:10;;;;;;;4.67;4.03;;;;;;;27.14;31.80;95016.72;5055890;28;20517;-77
2022/05/13 10:17:45;;;;;;;7.90;4.37;;;;;;;27.34;34.12;95002.13;5055426;28;20460;-77
2022/05/13 10:20:25;;;;;;;7.33;4.90;;;;;;;27.48;35.07;95000.88;5055850;28;20482;-77
2022/05/13 10:22:58;;;;;;;5.50;5.00;;;;;;;27.45;33.50;94995.94;5055088;28;20451;-77
2022/05/13 10:25:28;;;;;;;4.37;4.07;;;;;;;27.46;34.37;94995.69;5055310;28;20457;-77
2022/05/13 10:27:59;;;;;;;5.10;4.60;;;;;;;27.46;34.94;94994.88;5055411;28;20453;-77
2022/05/13 10:30:34;;;;;;;5.90;4.67;;;;;;;27.51;34.34;94992.34;5055234;28;20492;-77
2022/05/13 10:33:07;;;;;;;5.37;4.93;;;;;;;27.34;34.13;94996.75;5054855;28;20449;-77
2022/05/13 10:35:46;;;;;;;6.83;5.30;;;;;;;26.95;34.59;94990.88;5055099;28;20442;-78
2022/05/13 10:38:19;;;;;;;5.10;4.60;;;;;;;27.13;35.82;94984.63;5055163;28;20438;-76
2022/05/13 10:40:48;;;;;;;8.10;5.30;;;;;;;27.20;36.20;94992.63;5054945;28;20450;-77
2022/05/13 10:43:18;;;;;;;6.07;5.50;;;;;;;27.12;34.68;94989.19;5054749;28;20452;-77
2022/05/13 10:45:46;;;;;;;7.10;5.20;;;;;;;27.26;36.21;94975.53;5054961;28;20446;-77
2022/05/13 10:48:27;;;;;;;5.73;5.23;;;;;;;27.33;35.40;94973.53;5055231;28;20438;-77
2022/05/13 10:51:09;;;;;;;5.23;4.93;;;;;;;27.44;34.40;94960.06;5070784;28;21002;-77
2022/05/13 10:53:54;;;;;;;5.83;4.70;;;;;;;27.67;35.79;94972.78;5074237;28;20451;-77
2022/05/13 10:56:30;;;;;;;5.07;4.60;;;;;;;27.51;35.69;94964.56;5074915;28;20516;-76
2022/05/13 10:59:01;;;;;;;9.10;5.70;;;;;;;27.59;35.39;94956.94;5060294;28;20460;-77
2022/05/13 11:01:44;;;;;;;4.80;4.40;;;;;;;27.62;34.79;94956.50;5062448;28;20452;-77
2022/05/13 11:04:20;;;;;;;6.23;4.70;;;;;;;27.68;36.25;94955.56;5054694;28;20916;-77
2022/05/13 11:07:00;;;;;;;6.80;5.40;;;;;;;27.69;35.14;94946.41;5051264;28;20445;-77
2022/05/13 11:09:40;;;;;;;5.47;5.07;;;;;;;27.74;35.02;94943.81;5054407;28;20540;-78
2022/05/13 11:12:19;;;;;;;9.63;5.40;;;;;;;27.68;34.98;94939.38;5054590;28;20476;-78
2022/05/13 11:15:03;;;;;;;6.33;5.03;;;;;;;27.70;35.51;94933.75;5054008;28;20776;-76
2022/05/13 11:17:38;;;;;;;6.07;5.43;;;;;;;27.79;35.44;94939.63;5019326;28;20433;-76
2022/05/13 11:20:14;;;;;;;5.77;5.13;;;;;;;27.74;34.72;94927.63;5055127;28;20477;-77
2022/05/13 11:22:53;;;;;;;5.13;4.40;;;;;;;27.72;33.92;94924.38;5054625;28;20452;-77
2022/05/13 11:25:57;;;;;;;4.87;4.47;;;;;;;27.80;33.17;94927.78;5054634;28;20464;-77
2022/05/13 11:28:56;;;;;;;4.63;4.23;;;;;;;27.63;33.31;94916.88;5054684;28;20932;-77
2022/05/13 11:31:47;;;;;;;5.30;4.80;;;;;;;27.85;35.02;94917.09;4992684;28;20480;-77
2022/05/13 11:34:27;;;;;;;6.10;4.40;;;;;;;28.00;33.77;94918.22;4992987;28;20448;-77
2022/05/13 11:36:58;;;;;;;5.83;4.20;;;;;;;28.02;33.32;94909.91;4992648;28;20448;-77
2022/05/13 11:39:52;;;;;;;5.50;4.83;;;;;;;28.10;34.33;94914.13;4992838;28;20448;-77
2022/05/13 11:43:18;;;;;;;8.40;4.83;;;;;;;28.22;33.24;94902.22;4992352;28;20440;-78
2022/05/13 11:45:43;;;;;;;5.90;4.97;;;;;;;28.19;34.39;94899.19;4992834;28;20452;-77
2022/05/13 11:48:21;;;;;;;5.13;4.10;;;;;;;28.23;31.85;94893.06;4992487;28;20572;-76
2022/05/13 11:50:48;;;;;;;4.53;4.20;;;;;;;28.03;30.69;94892.66;4992435;28;20563;-77
2022/05/13 11:53:50;;;;;;;4.50;4.10;;;;;;;27.78;29.81;94895.66;4992245;28;20448;-77
2022/05/13 11:56:31;;;;;;;6.57;4.87;;;;;;;27.54;32.56;94883.22;4992240;28;20462;-77
2022/05/13 11:59:01;;;;;;;5.20;4.70;;;;;;;27.71;33.00;94876.88;4992105;28;20471;-77
2022/05/13 12:02:13;;;;;;;5.00;4.50;;;;;;;27.69;31.13;94873.59;4992160;28;20452;-76
2022/05/13 12:05:14;;;;;;;4.47;4.17;;;;;;;27.66;31.18;94867.88;4934506;29;20451;-78
2022/05/13 12:07:52;;;;;;;4.67;4.03;;;;;;;27.72;32.14;94869.59;4945663;29;20913;-77
2022/05/13 12:10:24;;;;;;;5.50;4.10;;;;;;;27.87;31.53;94866.44;4953418;28;20490;-77
2022/05/13 12:13:03;;;;;;;5.30;4.90;;;;;;;27.92;30.91;94861.97;4953269;28;20950;-77
2022/05/13 12:15:46;;;;;;;6.83;5.27;;;;;;;27.99;30.67;94856.41;4964306;28;20568;-77
2022/05/13 12:18:29;;;;;;;8.57;5.30;;;;;;;28.02;32.49;94854.06;4991954;28;20526;-77
2022/05/13 12:21:05;;;;;;;4.93;4.63;;;;;;;28.15;31.27;94844.06;4992031;28;20456;-77
2022/05/13 12:23:38;;;;;;;4.87;4.47;;;;;;;28.23;31.34;94847.19;4976625;28;20452;-77
2022/05/13 12:26:06;;;;;;;4.80;4.40;;;;;;;28.23;31.67;94841.81;4972559;28;20449;-77
2022/05/13 12:28:42;;;;;;;6.83;4.43;;;;;;;28.15;31.04;94831.41;4972897;28;20799;-77
2022/05/13 12:31:32;;;;;;;5.30;4.60;;;;;;;28.22;31.50;94831.25;4972646;28;20547;-77
2022/05/13 12:39:46;;;;;;;5.17;4.67;;;;;;;28.10;30.83;94815.13;4983970;28;20468;-77
2022/05/13 12:42:14;;;;;;;4.70;4.13;;;;;;;28.15;30.83;94815.22;5053542;28;20529;-77
2022/05/13 12:44:58;;;;;;;6.90;4.57;;;;;;;28.20;31.92;94809.91;5052953;28;20454;-77
2022/05/13 12:47:29;;;;;;;7.53;4.60;;;;;;;28.21;31.68;94808.84;5018172;28;20491;-77
2022/05/13 12:49:59;;;;;;;5.90;5.40;;;;;;;28.27;31.38;94794.41;5052443;28;20454;-77
2022/05/13 12:52:38;;;;;;;7.53;4.77;;;;;;;28.35;30.29;94796.72;5052608;28;20481;-77
2022/05/13 12:55:10;;;;;;;11.17;5.17;;;;;;;28.36;29.83;94792.16;5051954;28;21011;-76
2022/05/13 12:57:42;;;;;;;10.43;4.50;;;;;;;28.32;29.87;94791.78;5051743;28;20452;-77
2022/05/13 13:00:14;;;;;;;4.80;4.40;;;;;;;28.37;29.58;94799.19;5051816;28;20456;-77
2022/05/13 13:02:44;;;;;;;4.70;4.40;;;;;;;28.39;29.24;94788.97;5052210;28;20830;-77
2022/05/13 13:05:19;;;;;;;5.30;4.80;;;;;;;28.47;31.55;94782.34;5051817;28;20446;-77
2022/05/13 13:07:46;;;;;;;6.27;5.10;;;;;;;28.52;30.32;94785.94;5051900;28;20502;-77
2022/05/13 13:10:18;;;;;;;5.50;5.00;;;;;;;28.49;28.74;94782.91;5051617;28;20453;-78
2022/05/13 13:13:01;;;;;;;7.83;4.73;;;;;;;28.36;29.30;94774.06;5051703;28;20461;-77
2022/05/13 13:15:34;;;;;;;4.73;4.33;;;;;;;28.41;29.75;94764.41;5052233;28;20507;-77
2022/05/13 13:18:05;;;;;;;5.47;4.97;;;;;;;28.43;30.11;94762.28;5054043;28;20500;-77
2022/05/13 13:20:33;;;;;;;5.60;4.90;;;;;;;28.45;30.71;94755.59;5055791;28;20445;-77